sensor_id;sensor_type;location;lat;lon;timestamp;P1;durP1;ratioP1;P2;durP2;ratioP2
58768;SDS011;44536;47.474;19.056;2023-05-13T00:01:59;12.65;;;8.00;;
58768;SDS011;44536;47.474;19.056;2023-05-13T00:05:02;15.25;;;8.85;;
58768;SDS011;44536;47.474;19.056;2023-05-13T00:08:04;12.77;;;8.50;;
58768;SDS011;44536;47.474;19.056;2023-05-13T00:11:10;10.52;;;7.90;;
58768;SDS011;44536;47.474;19.056;2023-05-13T00:14:12;13.07;;;8.88;;
58768;SDS011;44536;47.474;19.056;2023-05-13T00:17:15;12.88;;;8.13;;
58768;SDS011;44536;47.474;19.056;2023-05-13T00:20:18;14.07;;;8.57;;
58768;SDS011;44536;47.474;19.056;2023-05-13T00:23:21;10.43;;;7.32;;
58768;SDS011;44536;47.474;19.056;2023-05-13T00:26:24;15.32;;;8.73;;
58768;SDS011;44536;47.474;19.056;2023-05-13T00:29:26;10.87;;;7.00;;
58768;SDS011;44536;47.474;19.056;2023-05-13T00:32:29;12.20;;;8.37;;
58768;SDS011;44536;47.474;19.056;2023-05-13T00:35:32;12.40;;;7.43;;
58768;SDS011;44536;47.474;19.056;2023-05-13T00:38:35;11.70;;;7.93;;
58768;SDS011;44536;47.474;19.056;2023-05-13T00:41:38;12.02;;;7.70;;
58768;SDS011;44536;47.474;19.056;2023-05-13T00:44:40;11.00;;;7.68;;
58768;SDS011;44536;47.474;19.056;2023-05-13T00:47:43;13.90;;;7.63;;
58768;SDS011;44536;47.474;19.056;2023-05-13T00:50:46;11.77;;;8.18;;
58768;SDS011;44536;47.474;19.056;2023-05-13T00:56:51;11.90;;;7.93;;
58768;SDS011;44536;47.474;19.056;2023-05-13T00:59:57;11.43;;;7.75;;
58768;SDS011;44536;47.474;19.056;2023-05-13T01:03:14;13.27;;;8.00;;
58768;SDS011;44536;47.474;19.056;2023-05-13T01:10:12;12.32;;;7.35;;
58768;SDS011;44536;47.474;19.056;2023-05-13T01:13:25;14.10;;;7.95;;
58768;SDS011;44536;47.474;19.056;2023-05-13T01:16:30;12.63;;;7.95;;
58768;SDS011;44536;47.474;19.056;2023-05-13T01:19:41;11.63;;;7.28;;
58768;SDS011;44536;47.474;19.056;2023-05-13T01:22:50;11.85;;;7.57;;
58768;SDS011;44536;47.474;19.056;2023-05-13T01:25:53;11.87;;;7.77;;
58768;SDS011;44536;47.474;19.056;2023-05-13T01:28:56;11.83;;;8.10;;
58768;SDS011;44536;47.474;19.056;2023-05-13T01:31:58;13.27;;;8.77;;
58768;SDS011;44536;47.474;19.056;2023-05-13T01:35:02;13.18;;;7.85;;
58768;SDS011;44536;47.474;19.056;2023-05-13T01:38:06;16.85;;;7.95;;
58768;SDS011;44536;47.474;19.056;2023-05-13T01:41:10;12.05;;;7.87;;
58768;SDS011;44536;47.474;19.056;2023-05-13T01:44:12;14.95;;;8.00;;
58768;SDS011;44536;47.474;19.056;2023-05-13T01:47:15;12.60;;;8.15;;
58768;SDS011;44536;47.474;19.056;2023-05-13T01:50:18;13.68;;;9.57;;
58768;SDS011;44536;47.474;19.056;2023-05-13T01:53:21;13.95;;;8.30;;
58768;SDS011;44536;47.474;19.056;2023-05-13T01:56:24;17.87;;;10.93;;
58768;SDS011;44536;47.474;19.056;2023-05-13T01:59:27;16.17;;;12.30;;
58768;SDS011;44536;47.474;19.056;2023-05-13T02:02:30;17.67;;;11.37;;
58768;SDS011;44536;47.474;19.056;2023-05-13T02:05:33;15.55;;;10.80;;
58768;SDS011;44536;47.474;19.056;2023-05-13T02:08:36;17.90;;;12.15;;
58768;SDS011;44536;47.474;19.056;2023-05-13T02:11:39;14.05;;;11.68;;
58768;SDS011;44536;47.474;19.056;2023-05-13T02:14:41;15.10;;;11.38;;
58768;SDS011;44536;47.474;19.056;2023-05-13T02:17:44;19.53;;;13.73;;
58768;SDS011;44536;47.474;19.056;2023-05-13T02:20:47;15.85;;;10.18;;
58768;SDS011;44536;47.474;19.056;2023-05-13T02:23:50;18.20;;;11.88;;
58768;SDS011;44536;47.474;19.056;2023-05-13T02:26:52;16.00;;;11.10;;
58768;SDS011;44536;47.474;19.056;2023-05-13T02:29:55;13.93;;;9.48;;
58768;SDS011;44536;47.474;19.056;2023-05-13T02:32:58;16.55;;;10.73;;
58768;SDS011;44536;47.474;19.056;2023-05-13T02:36:02;16.65;;;9.35;;
58768;SDS011;44536;47.474;19.056;2023-05-13T02:39:05;15.65;;;8.45;;
58768;SDS011;44536;47.474;19.056;2023-05-13T02:42:09;12.35;;;8.85;;
58768;SDS011;44536;47.474;19.056;2023-05-13T02:45:11;11.82;;;7.70;;
58768;SDS011;44536;47.474;19.056;2023-05-13T02:51:18;15.83;;;9.13;;
58768;SDS011;44536;47.474;19.056;2023-05-13T02:54:21;11.52;;;7.22;;
58768;SDS011;44536;47.474;19.056;2023-05-13T02:57:24;14.25;;;9.15;;
58768;SDS011;44536;47.474;19.056;2023-05-13T03:00:26;11.63;;;6.80;;
58768;SDS011;44536;47.474;19.056;2023-05-13T03:03:29;12.85;;;7.78;;
58768;SDS011;44536;47.474;19.056;2023-05-13T03:06:32;11.45;;;7.22;;
58768;SDS011;44536;47.474;19.056;2023-05-13T03:09:34;12.85;;;7.80;;
58768;SDS011;44536;47.474;19.056;2023-05-13T03:12:41;12.70;;;7.25;;
58768;SDS011;44536;47.474;19.056;2023-05-13T03:15:44;11.68;;;6.80;;
58768;SDS011;44536;47.474;19.056;2023-05-13T03:18:47;15.27;;;8.43;;
58768;SDS011;44536;47.474;19.056;2023-05-13T03:21:50;11.50;;;7.25;;
58768;SDS011;44536;47.474;19.056;2023-05-13T03:24:53;11.13;;;7.37;;
58768;SDS011;44536;47.474;19.056;2023-05-13T03:27:56;11.15;;;6.85;;
58768;SDS011;44536;47.474;19.056;2023-05-13T03:31:00;12.27;;;7.28;;
58768;SDS011;44536;47.474;19.056;2023-05-13T03:34:03;11.90;;;7.10;;
58768;SDS011;44536;47.474;19.056;2023-05-13T03:37:06;11.47;;;7.17;;
58768;SDS011;44536;47.474;19.056;2023-05-13T03:40:10;11.38;;;7.35;;
58768;SDS011;44536;47.474;19.056;2023-05-13T03:43:13;12.52;;;8.60;;
58768;SDS011;44536;47.474;19.056;2023-05-13T03:46:16;10.50;;;7.10;;
58768;SDS011;44536;47.474;19.056;2023-05-13T03:49:19;12.47;;;7.10;;
58768;SDS011;44536;47.474;19.056;2023-05-13T03:52:21;13.75;;;8.80;;
58768;SDS011;44536;47.474;19.056;2023-05-13T03:55:24;13.43;;;9.10;;
58768;SDS011;44536;47.474;19.056;2023-05-13T04:01:31;12.83;;;8.00;;
58768;SDS011;44536;47.474;19.056;2023-05-13T04:04:34;10.10;;;6.57;;
58768;SDS011;44536;47.474;19.056;2023-05-13T04:07:37;13.18;;;7.12;;
58768;SDS011;44536;47.474;19.056;2023-05-13T04:10:39;12.35;;;7.45;;
58768;SDS011;44536;47.474;19.056;2023-05-13T04:13:42;11.12;;;6.95;;
58768;SDS011;44536;47.474;19.056;2023-05-13T04:16:45;11.27;;;7.55;;
58768;SDS011;44536;47.474;19.056;2023-05-13T04:19:48;11.35;;;6.93;;
58768;SDS011;44536;47.474;19.056;2023-05-13T04:22:54;10.57;;;6.55;;
58768;SDS011;44536;47.474;19.056;2023-05-13T04:25:56;11.70;;;7.27;;
58768;SDS011;44536;47.474;19.056;2023-05-13T04:28:59;14.23;;;8.20;;
58768;SDS011;44536;47.474;19.056;2023-05-13T04:32:02;12.68;;;7.35;;
58768;SDS011;44536;47.474;19.056;2023-05-13T04:35:08;10.88;;;7.15;;
58768;SDS011;44536;47.474;19.056;2023-05-13T04:38:11;12.10;;;7.20;;
58768;SDS011;44536;47.474;19.056;2023-05-13T04:41:14;12.33;;;7.50;;
58768;SDS011;44536;47.474;19.056;2023-05-13T04:44:17;13.88;;;8.95;;
58768;SDS011;44536;47.474;19.056;2023-05-13T04:47:21;10.48;;;6.70;;
58768;SDS011;44536;47.474;19.056;2023-05-13T04:50:24;13.77;;;7.23;;
58768;SDS011;44536;47.474;19.056;2023-05-13T04:53:28;12.07;;;7.97;;
58768;SDS011;44536;47.474;19.056;2023-05-13T04:56:31;10.75;;;6.70;;
58768;SDS011;44536;47.474;19.056;2023-05-13T04:59:34;10.70;;;6.40;;
58768;SDS011;44536;47.474;19.056;2023-05-13T05:02:37;12.88;;;7.32;;
58768;SDS011;44536;47.474;19.056;2023-05-13T05:05:40;11.63;;;8.00;;
58768;SDS011;44536;47.474;19.056;2023-05-13T05:08:43;10.93;;;7.23;;
58768;SDS011;44536;47.474;19.056;2023-05-13T05:11:46;13.30;;;7.78;;
58768;SDS011;44536;47.474;19.056;2023-05-13T05:14:51;12.77;;;8.50;;
58768;SDS011;44536;47.474;19.056;2023-05-13T05:17:54;12.23;;;8.20;;
58768;SDS011;44536;47.474;19.056;2023-05-13T05:24:04;12.15;;;7.15;;
58768;SDS011;44536;47.474;19.056;2023-05-13T05:27:07;10.50;;;7.12;;
58768;SDS011;44536;47.474;19.056;2023-05-13T05:30:10;12.30;;;8.60;;
58768;SDS011;44536;47.474;19.056;2023-05-13T05:33:14;9.48;;;6.45;;
58768;SDS011;44536;47.474;19.056;2023-05-13T05:36:17;10.77;;;7.10;;
58768;SDS011;44536;47.474;19.056;2023-05-13T05:39:19;12.07;;;7.90;;
58768;SDS011;44536;47.474;19.056;2023-05-13T05:42:22;14.52;;;9.10;;
58768;SDS011;44536;47.474;19.056;2023-05-13T05:45:25;10.48;;;6.72;;
58768;SDS011;44536;47.474;19.056;2023-05-13T05:48:28;11.57;;;7.15;;
58768;SDS011;44536;47.474;19.056;2023-05-13T05:51:31;12.50;;;7.53;;
58768;SDS011;44536;47.474;19.056;2023-05-13T05:57:36;14.18;;;7.90;;
58768;SDS011;44536;47.474;19.056;2023-05-13T06:00:39;11.32;;;7.57;;
58768;SDS011;44536;47.474;19.056;2023-05-13T06:03:41;10.55;;;6.68;;
58768;SDS011;44536;47.474;19.056;2023-05-13T06:06:44;11.97;;;7.93;;
58768;SDS011;44536;47.474;19.056;2023-05-13T06:09:47;12.32;;;6.93;;
58768;SDS011;44536;47.474;19.056;2023-05-13T06:12:49;13.60;;;7.78;;
58768;SDS011;44536;47.474;19.056;2023-05-13T06:15:52;13.03;;;8.53;;
58768;SDS011;44536;47.474;19.056;2023-05-13T06:18:55;13.62;;;8.88;;
58768;SDS011;44536;47.474;19.056;2023-05-13T06:21:59;13.68;;;7.75;;
58768;SDS011;44536;47.474;19.056;2023-05-13T06:25:05;12.82;;;8.13;;
58768;SDS011;44536;47.474;19.056;2023-05-13T06:28:09;13.62;;;7.95;;
58768;SDS011;44536;47.474;19.056;2023-05-13T06:31:13;11.45;;;7.82;;
58768;SDS011;44536;47.474;19.056;2023-05-13T06:34:17;10.70;;;7.05;;
58768;SDS011;44536;47.474;19.056;2023-05-13T06:37:20;12.43;;;7.85;;
58768;SDS011;44536;47.474;19.056;2023-05-13T06:40:23;11.23;;;7.00;;
58768;SDS011;44536;47.474;19.056;2023-05-13T06:43:27;10.90;;;7.32;;
58768;SDS011;44536;47.474;19.056;2023-05-13T06:46:30;13.00;;;7.82;;
58768;SDS011;44536;47.474;19.056;2023-05-13T06:49:32;10.75;;;7.18;;
58768;SDS011;44536;47.474;19.056;2023-05-13T06:52:36;11.50;;;7.62;;
58768;SDS011;44536;47.474;19.056;2023-05-13T06:55:40;12.63;;;7.78;;
58768;SDS011;44536;47.474;19.056;2023-05-13T06:58:44;10.15;;;7.18;;
58768;SDS011;44536;47.474;19.056;2023-05-13T07:01:46;10.40;;;7.87;;
58768;SDS011;44536;47.474;19.056;2023-05-13T07:04:49;10.98;;;7.10;;
58768;SDS011;44536;47.474;19.056;2023-05-13T07:07:51;13.30;;;7.35;;
58768;SDS011;44536;47.474;19.056;2023-05-13T07:10:55;10.50;;;7.55;;
58768;SDS011;44536;47.474;19.056;2023-05-13T07:13:57;12.55;;;7.40;;
58768;SDS011;44536;47.474;19.056;2023-05-13T07:16:59;9.10;;;6.28;;
58768;SDS011;44536;47.474;19.056;2023-05-13T07:20:03;10.30;;;5.70;;
58768;SDS011;44536;47.474;19.056;2023-05-13T07:23:06;9.55;;;5.57;;
58768;SDS011;44536;47.474;19.056;2023-05-13T07:26:09;8.15;;;5.35;;
58768;SDS011;44536;47.474;19.056;2023-05-13T07:29:11;9.85;;;5.25;;
58768;SDS011;44536;47.474;19.056;2023-05-13T07:32:14;9.23;;;4.50;;
58768;SDS011;44536;47.474;19.056;2023-05-13T07:35:17;11.23;;;5.45;;
58768;SDS011;44536;47.474;19.056;2023-05-13T07:38:19;9.90;;;6.18;;
58768;SDS011;44536;47.474;19.056;2023-05-13T07:41:22;7.82;;;4.85;;
58768;SDS011;44536;47.474;19.056;2023-05-13T07:44:24;8.90;;;5.72;;
58768;SDS011;44536;47.474;19.056;2023-05-13T07:47:27;10.27;;;5.80;;
58768;SDS011;44536;47.474;19.056;2023-05-13T07:50:32;9.73;;;6.97;;
58768;SDS011;44536;47.474;19.056;2023-05-13T07:53:34;11.82;;;8.02;;
58768;SDS011;44536;47.474;19.056;2023-05-13T07:56:37;10.85;;;7.12;;
58768;SDS011;44536;47.474;19.056;2023-05-13T07:59:40;11.30;;;7.50;;
58768;SDS011;44536;47.474;19.056;2023-05-13T08:02:45;11.57;;;7.60;;
58768;SDS011;44536;47.474;19.056;2023-05-13T08:05:48;13.10;;;8.23;;
58768;SDS011;44536;47.474;19.056;2023-05-13T08:08:50;12.98;;;7.15;;
58768;SDS011;44536;47.474;19.056;2023-05-13T08:11:53;14.50;;;7.37;;
58768;SDS011;44536;47.474;19.056;2023-05-13T08:14:55;11.45;;;7.25;;
58768;SDS011;44536;47.474;19.056;2023-05-13T08:17:59;10.50;;;6.93;;
58768;SDS011;44536;47.474;19.056;2023-05-13T08:21:01;10.93;;;8.20;;
58768;SDS011;44536;47.474;19.056;2023-05-13T08:24:04;10.73;;;6.93;;
58768;SDS011;44536;47.474;19.056;2023-05-13T08:27:07;12.75;;;7.90;;
58768;SDS011;44536;47.474;19.056;2023-05-13T08:30:10;10.98;;;6.85;;
58768;SDS011;44536;47.474;19.056;2023-05-13T08:33:12;11.50;;;8.07;;
58768;SDS011;44536;47.474;19.056;2023-05-13T08:36:15;11.85;;;7.95;;
58768;SDS011;44536;47.474;19.056;2023-05-13T08:39:18;9.63;;;6.35;;
58768;SDS011;44536;47.474;19.056;2023-05-13T08:42:21;10.30;;;6.87;;
58768;SDS011;44536;47.474;19.056;2023-05-13T08:45:25;10.68;;;6.43;;
58768;SDS011;44536;47.474;19.056;2023-05-13T08:48:30;11.35;;;6.20;;
58768;SDS011;44536;47.474;19.056;2023-05-13T08:51:34;11.27;;;6.57;;
58768;SDS011;44536;47.474;19.056;2023-05-13T08:54:37;9.90;;;6.10;;
58768;SDS011;44536;47.474;19.056;2023-05-13T08:57:40;10.77;;;7.80;;
58768;SDS011;44536;47.474;19.056;2023-05-13T09:00:43;11.30;;;6.03;;
58768;SDS011;44536;47.474;19.056;2023-05-13T09:03:51;9.20;;;6.47;;
58768;SDS011;44536;47.474;19.056;2023-05-13T09:07:01;13.05;;;7.22;;
58768;SDS011;44536;47.474;19.056;2023-05-13T09:10:04;9.97;;;6.83;;
58768;SDS011;44536;47.474;19.056;2023-05-13T09:13:13;10.30;;;6.07;;
58768;SDS011;44536;47.474;19.056;2023-05-13T09:16:18;10.82;;;7.60;;
58768;SDS011;44536;47.474;19.056;2023-05-13T09:19:22;9.60;;;6.87;;
58768;SDS011;44536;47.474;19.056;2023-05-13T09:22:25;10.15;;;7.47;;
58768;SDS011;44536;47.474;19.056;2023-05-13T09:25:28;15.97;;;7.27;;
58768;SDS011;44536;47.474;19.056;2023-05-13T09:28:32;10.25;;;6.15;;
58768;SDS011;44536;47.474;19.056;2023-05-13T09:31:34;11.15;;;6.43;;
58768;SDS011;44536;47.474;19.056;2023-05-13T09:34:37;8.93;;;5.82;;
58768;SDS011;44536;47.474;19.056;2023-05-13T09:37:44;8.80;;;5.75;;
58768;SDS011;44536;47.474;19.056;2023-05-13T09:40:55;10.70;;;5.47;;
58768;SDS011;44536;47.474;19.056;2023-05-13T09:44:01;7.97;;;5.30;;
58768;SDS011;44536;47.474;19.056;2023-05-13T09:47:04;9.63;;;6.43;;
58768;SDS011;44536;47.474;19.056;2023-05-13T09:50:10;8.40;;;5.57;;
58768;SDS011;44536;47.474;19.056;2023-05-13T09:53:13;8.50;;;5.50;;
58768;SDS011;44536;47.474;19.056;2023-05-13T09:56:17;7.78;;;5.35;;
58768;SDS011;44536;47.474;19.056;2023-05-13T09:59:25;11.40;;;6.35;;
58768;SDS011;44536;47.474;19.056;2023-05-13T10:02:27;11.55;;;6.55;;
58768;SDS011;44536;47.474;19.056;2023-05-13T10:05:30;12.97;;;7.07;;
58768;SDS011;44536;47.474;19.056;2023-05-13T10:08:34;12.73;;;6.85;;
58768;SDS011;44536;47.474;19.056;2023-05-13T10:11:37;9.90;;;7.12;;
58768;SDS011;44536;47.474;19.056;2023-05-13T10:14:42;9.77;;;6.47;;
58768;SDS011;44536;47.474;19.056;2023-05-13T10:17:45;10.35;;;6.75;;
58768;SDS011;44536;47.474;19.056;2023-05-13T10:20:49;10.32;;;6.50;;
58768;SDS011;44536;47.474;19.056;2023-05-13T10:23:55;10.73;;;6.45;;
58768;SDS011;44536;47.474;19.056;2023-05-13T10:26:58;9.40;;;6.40;;
58768;SDS011;44536;47.474;19.056;2023-05-13T10:30:03;10.07;;;7.32;;
58768;SDS011;44536;47.474;19.056;2023-05-13T10:33:10;11.80;;;6.90;;
58768;SDS011;44536;47.474;19.056;2023-05-13T10:43:11;7.70;;;5.62;;
58768;SDS011;44536;47.474;19.056;2023-05-13T10:46:14;10.38;;;6.95;;
58768;SDS011;44536;47.474;19.056;2023-05-13T10:49:17;10.48;;;6.65;;
58768;SDS011;44536;47.474;19.056;2023-05-13T10:52:20;11.45;;;7.72;;
58768;SDS011;44536;47.474;19.056;2023-05-13T10:55:22;9.65;;;6.07;;
58768;SDS011;44536;47.474;19.056;2023-05-13T10:58:30;9.70;;;6.22;;
58768;SDS011;44536;47.474;19.056;2023-05-13T11:01:36;10.10;;;6.57;;
58768;SDS011;44536;47.474;19.056;2023-05-13T11:05:00;9.30;;;6.32;;
58768;SDS011;44536;47.474;19.056;2023-05-13T11:08:03;10.27;;;7.05;;
58768;SDS011;44536;47.474;19.056;2023-05-13T11:14:21;13.38;;;6.90;;
58768;SDS011;44536;47.474;19.056;2023-05-13T11:17:25;12.90;;;7.05;;
58768;SDS011;44536;47.474;19.056;2023-05-13T11:20:29;9.47;;;5.83;;
58768;SDS011;44536;47.474;19.056;2023-05-13T11:23:57;9.57;;;6.07;;
58768;SDS011;44536;47.474;19.056;2023-05-13T11:27:12;14.38;;;7.55;;
58768;SDS011;44536;47.474;19.056;2023-05-13T11:30:22;10.93;;;7.25;;
58768;SDS011;44536;47.474;19.056;2023-05-13T11:33:58;11.50;;;7.10;;
58768;SDS011;44536;47.474;19.056;2023-05-13T11:37:10;13.68;;;8.77;;
58768;SDS011;44536;47.474;19.056;2023-05-13T11:40:23;9.90;;;6.00;;
58768;SDS011;44536;47.474;19.056;2023-05-13T11:43:27;10.50;;;6.87;;
58768;SDS011;44536;47.474;19.056;2023-05-13T11:49:42;8.68;;;6.43;;
58768;SDS011;44536;47.474;19.056;2023-05-13T11:55:56;9.65;;;6.47;;
58768;SDS011;44536;47.474;19.056;2023-05-13T11:59:13;10.25;;;6.85;;
58768;SDS011;44536;47.474;19.056;2023-05-13T12:02:20;10.23;;;6.65;;
58768;SDS011;44536;47.474;19.056;2023-05-13T12:05:24;12.02;;;6.72;;
58768;SDS011;44536;47.474;19.056;2023-05-13T12:08:28;11.15;;;6.55;;
58768;SDS011;44536;47.474;19.056;2023-05-13T12:11:31;11.45;;;6.57;;
58768;SDS011;44536;47.474;19.056;2023-05-13T12:14:34;9.85;;;6.20;;
58768;SDS011;44536;47.474;19.056;2023-05-13T12:17:37;9.33;;;6.40;;
58768;SDS011;44536;47.474;19.056;2023-05-13T12:20:39;9.13;;;6.33;;
58768;SDS011;44536;47.474;19.056;2023-05-13T12:23:42;10.27;;;6.83;;
58768;SDS011;44536;47.474;19.056;2023-05-13T12:26:44;10.13;;;6.00;;
58768;SDS011;44536;47.474;19.056;2023-05-13T12:29:47;10.27;;;7.13;;
58768;SDS011;44536;47.474;19.056;2023-05-13T12:32:50;10.63;;;5.95;;
58768;SDS011;44536;47.474;19.056;2023-05-13T12:35:54;8.23;;;5.90;;
58768;SDS011;44536;47.474;19.056;2023-05-13T12:39:18;8.67;;;5.67;;
58768;SDS011;44536;47.474;19.056;2023-05-13T12:42:21;9.32;;;6.30;;
58768;SDS011;44536;47.474;19.056;2023-05-13T12:45:30;9.82;;;6.32;;
58768;SDS011;44536;47.474;19.056;2023-05-13T12:48:34;10.75;;;6.15;;
58768;SDS011;44536;47.474;19.056;2023-05-13T12:51:36;9.38;;;6.37;;
58768;SDS011;44536;47.474;19.056;2023-05-13T12:54:39;11.93;;;6.43;;
58768;SDS011;44536;47.474;19.056;2023-05-13T12:57:41;9.75;;;6.07;;
58768;SDS011;44536;47.474;19.056;2023-05-13T13:00:44;10.63;;;6.80;;
58768;SDS011;44536;47.474;19.056;2023-05-13T13:03:47;11.73;;;6.63;;
58768;SDS011;44536;47.474;19.056;2023-05-13T13:06:50;10.18;;;6.15;;
58768;SDS011;44536;47.474;19.056;2023-05-13T13:09:52;11.15;;;6.80;;
58768;SDS011;44536;47.474;19.056;2023-05-13T13:12:56;9.10;;;6.32;;
58768;SDS011;44536;47.474;19.056;2023-05-13T13:15:59;9.98;;;6.60;;
58768;SDS011;44536;47.474;19.056;2023-05-13T13:22:04;9.65;;;6.05;;
58768;SDS011;44536;47.474;19.056;2023-05-13T13:25:07;9.32;;;5.72;;
58768;SDS011;44536;47.474;19.056;2023-05-13T13:28:10;7.72;;;5.57;;
58768;SDS011;44536;47.474;19.056;2023-05-13T13:31:13;8.63;;;6.18;;
58768;SDS011;44536;47.474;19.056;2023-05-13T13:34:15;10.00;;;6.00;;
58768;SDS011;44536;47.474;19.056;2023-05-13T13:37:17;9.13;;;5.78;;
58768;SDS011;44536;47.474;19.056;2023-05-13T13:40:20;8.73;;;6.03;;
58768;SDS011;44536;47.474;19.056;2023-05-13T13:43:23;9.43;;;6.50;;
58768;SDS011;44536;47.474;19.056;2023-05-13T13:46:26;8.80;;;6.00;;
58768;SDS011;44536;47.474;19.056;2023-05-13T13:49:28;8.57;;;5.50;;
58768;SDS011;44536;47.474;19.056;2023-05-13T13:52:31;8.43;;;5.47;;
58768;SDS011;44536;47.474;19.056;2023-05-13T13:55:34;9.60;;;6.50;;
58768;SDS011;44536;47.474;19.056;2023-05-13T13:58:36;11.00;;;6.93;;
58768;SDS011;44536;47.474;19.056;2023-05-13T14:01:39;9.07;;;5.75;;
58768;SDS011;44536;47.474;19.056;2023-05-13T14:04:41;9.93;;;5.43;;
58768;SDS011;44536;47.474;19.056;2023-05-13T14:07:44;10.43;;;7.07;;
58768;SDS011;44536;47.474;19.056;2023-05-13T14:10:47;9.18;;;5.37;;
58768;SDS011;44536;47.474;19.056;2023-05-13T14:13:50;8.40;;;6.60;;
58768;SDS011;44536;47.474;19.056;2023-05-13T14:16:52;9.38;;;5.25;;
58768;SDS011;44536;47.474;19.056;2023-05-13T14:19:55;10.98;;;6.35;;
58768;SDS011;44536;47.474;19.056;2023-05-13T14:22:58;8.52;;;5.78;;
58768;SDS011;44536;47.474;19.056;2023-05-13T14:26:01;8.90;;;6.25;;
58768;SDS011;44536;47.474;19.056;2023-05-13T14:29:03;8.50;;;5.43;;
58768;SDS011;44536;47.474;19.056;2023-05-13T14:32:06;10.38;;;6.15;;
58768;SDS011;44536;47.474;19.056;2023-05-13T14:35:08;10.10;;;5.47;;
58768;SDS011;44536;47.474;19.056;2023-05-13T14:38:11;11.02;;;6.32;;
58768;SDS011;44536;47.474;19.056;2023-05-13T14:41:14;9.52;;;6.90;;
58768;SDS011;44536;47.474;19.056;2023-05-13T14:44:21;9.70;;;6.18;;
58768;SDS011;44536;47.474;19.056;2023-05-13T14:47:24;8.63;;;5.95;;
58768;SDS011;44536;47.474;19.056;2023-05-13T14:50:26;9.15;;;6.90;;
58768;SDS011;44536;47.474;19.056;2023-05-13T14:53:29;9.50;;;6.30;;
58768;SDS011;44536;47.474;19.056;2023-05-13T14:56:31;8.90;;;5.85;;
58768;SDS011;44536;47.474;19.056;2023-05-13T14:59:34;8.07;;;5.53;;
58768;SDS011;44536;47.474;19.056;2023-05-13T15:02:37;10.75;;;6.05;;
58768;SDS011;44536;47.474;19.056;2023-05-13T15:05:40;7.95;;;5.05;;
58768;SDS011;44536;47.474;19.056;2023-05-13T15:08:45;9.65;;;5.87;;
58768;SDS011;44536;47.474;19.056;2023-05-13T15:11:48;9.35;;;6.05;;
58768;SDS011;44536;47.474;19.056;2023-05-13T15:14:51;9.70;;;5.90;;
58768;SDS011;44536;47.474;19.056;2023-05-13T15:17:54;14.00;;;6.82;;
58768;SDS011;44536;47.474;19.056;2023-05-13T15:20:57;7.93;;;5.47;;
58768;SDS011;44536;47.474;19.056;2023-05-13T15:23:59;9.70;;;6.18;;
58768;SDS011;44536;47.474;19.056;2023-05-13T15:27:02;10.18;;;6.43;;
58768;SDS011;44536;47.474;19.056;2023-05-13T15:30:05;10.60;;;6.30;;
58768;SDS011;44536;47.474;19.056;2023-05-13T15:33:08;9.05;;;5.90;;
58768;SDS011;44536;47.474;19.056;2023-05-13T15:36:11;9.77;;;6.07;;
58768;SDS011;44536;47.474;19.056;2023-05-13T15:39:13;9.07;;;5.90;;
58768;SDS011;44536;47.474;19.056;2023-05-13T15:42:17;9.48;;;5.55;;
58768;SDS011;44536;47.474;19.056;2023-05-13T15:45:20;8.98;;;5.90;;
58768;SDS011;44536;47.474;19.056;2023-05-13T15:48:22;9.85;;;6.03;;
58768;SDS011;44536;47.474;19.056;2023-05-13T15:51:25;11.32;;;6.72;;
58768;SDS011;44536;47.474;19.056;2023-05-13T15:54:28;9.30;;;5.80;;
58768;SDS011;44536;47.474;19.056;2023-05-13T15:57:30;11.50;;;6.87;;
58768;SDS011;44536;47.474;19.056;2023-05-13T16:00:33;9.70;;;5.68;;
58768;SDS011;44536;47.474;19.056;2023-05-13T16:03:36;9.40;;;5.68;;
58768;SDS011;44536;47.474;19.056;2023-05-13T16:06:40;10.35;;;5.97;;
58768;SDS011;44536;47.474;19.056;2023-05-13T16:09:43;10.98;;;6.10;;
58768;SDS011;44536;47.474;19.056;2023-05-13T16:12:45;9.98;;;5.80;;
58768;SDS011;44536;47.474;19.056;2023-05-13T16:15:47;9.27;;;5.95;;
58768;SDS011;44536;47.474;19.056;2023-05-13T16:18:51;9.85;;;6.40;;
58768;SDS011;44536;47.474;19.056;2023-05-13T16:21:53;10.93;;;6.18;;
58768;SDS011;44536;47.474;19.056;2023-05-13T16:24:57;9.70;;;5.80;;
58768;SDS011;44536;47.474;19.056;2023-05-13T16:28:03;8.88;;;5.45;;
58768;SDS011;44536;47.474;19.056;2023-05-13T16:31:06;9.23;;;5.68;;
58768;SDS011;44536;47.474;19.056;2023-05-13T16:34:09;9.40;;;5.27;;
58768;SDS011;44536;47.474;19.056;2023-05-13T16:37:11;12.95;;;6.32;;
58768;SDS011;44536;47.474;19.056;2023-05-13T16:40:14;10.57;;;6.20;;
58768;SDS011;44536;47.474;19.056;2023-05-13T16:43:16;10.02;;;6.30;;
58768;SDS011;44536;47.474;19.056;2023-05-13T16:46:19;10.52;;;5.75;;
58768;SDS011;44536;47.474;19.056;2023-05-13T16:49:21;12.25;;;6.57;;
58768;SDS011;44536;47.474;19.056;2023-05-13T16:52:24;10.03;;;5.93;;
58768;SDS011;44536;47.474;19.056;2023-05-13T16:55:27;11.63;;;6.60;;
58768;SDS011;44536;47.474;19.056;2023-05-13T16:58:30;9.48;;;5.55;;
58768;SDS011;44536;47.474;19.056;2023-05-13T17:01:32;9.60;;;6.43;;
58768;SDS011;44536;47.474;19.056;2023-05-13T17:04:35;10.40;;;6.33;;
58768;SDS011;44536;47.474;19.056;2023-05-13T17:07:37;10.27;;;6.67;;
58768;SDS011;44536;47.474;19.056;2023-05-13T17:10:40;9.20;;;6.00;;
58768;SDS011;44536;47.474;19.056;2023-05-13T17:13:43;10.25;;;6.20;;
58768;SDS011;44536;47.474;19.056;2023-05-13T17:16:46;9.15;;;6.03;;
58768;SDS011;44536;47.474;19.056;2023-05-13T17:19:49;10.27;;;6.60;;
58768;SDS011;44536;47.474;19.056;2023-05-13T17:22:51;11.63;;;6.60;;
58768;SDS011;44536;47.474;19.056;2023-05-13T17:25:53;10.05;;;6.65;;
58768;SDS011;44536;47.474;19.056;2023-05-13T17:28:56;10.18;;;6.55;;
58768;SDS011;44536;47.474;19.056;2023-05-13T17:31:59;9.80;;;5.80;;
58768;SDS011;44536;47.474;19.056;2023-05-13T17:35:03;10.85;;;5.93;;
58768;SDS011;44536;47.474;19.056;2023-05-13T17:38:06;10.73;;;6.05;;
58768;SDS011;44536;47.474;19.056;2023-05-13T17:41:09;8.80;;;5.78;;
58768;SDS011;44536;47.474;19.056;2023-05-13T17:44:11;10.15;;;6.03;;
58768;SDS011;44536;47.474;19.056;2023-05-13T17:47:15;9.57;;;5.90;;
58768;SDS011;44536;47.474;19.056;2023-05-13T17:50:18;9.05;;;5.32;;
58768;SDS011;44536;47.474;19.056;2023-05-13T17:53:21;9.77;;;6.00;;
58768;SDS011;44536;47.474;19.056;2023-05-13T17:56:23;10.68;;;5.75;;
58768;SDS011;44536;47.474;19.056;2023-05-13T17:59:26;8.15;;;5.90;;
58768;SDS011;44536;47.474;19.056;2023-05-13T18:02:28;9.88;;;6.25;;
58768;SDS011;44536;47.474;19.056;2023-05-13T18:05:31;8.95;;;5.78;;
58768;SDS011;44536;47.474;19.056;2023-05-13T18:08:34;9.45;;;6.32;;
58768;SDS011;44536;47.474;19.056;2023-05-13T18:11:37;12.18;;;7.68;;
58768;SDS011;44536;47.474;19.056;2023-05-13T18:14:39;10.27;;;6.68;;
58768;SDS011;44536;47.474;19.056;2023-05-13T18:17:42;10.57;;;6.03;;
58768;SDS011;44536;47.474;19.056;2023-05-13T18:20:44;9.73;;;5.85;;
58768;SDS011;44536;47.474;19.056;2023-05-13T18:23:47;8.02;;;5.82;;
58768;SDS011;44536;47.474;19.056;2023-05-13T18:26:49;10.07;;;7.35;;
58768;SDS011;44536;47.474;19.056;2023-05-13T18:29:52;9.73;;;6.30;;
58768;SDS011;44536;47.474;19.056;2023-05-13T18:32:54;9.23;;;7.03;;
58768;SDS011;44536;47.474;19.056;2023-05-13T18:35:57;11.80;;;7.23;;
58768;SDS011;44536;47.474;19.056;2023-05-13T18:38:59;9.45;;;6.10;;